(°C)
-2°
-2°
-2°
-2°
-2°
-2°
-2°
(°C)
-7°
-7°
-6°
-6°
-6°
-6°
-7°
SSW
SSW
SSW
SSW
SSW
جنوب
جنوب
(كم/سا)
13-25
12-24
11-22
10-18
9-15
9-15
10-16
(مم)
3
3
0
0
0
0
0
(%)
37
30
27
19
9
5
4

مستوى ارتفاع الشمس

/ 10.9°
sun-icon
UV 0
08:38
16:04
هلال الصباح (17°)
10:23
16:32

متر ل55.6°شمال 37.27°شرق (UUWW)

الوقت الشروط درجة الحرارة/
نقطة الندى
رياح مجال رؤية حالة الطقس غيوم الضغط تغيير خام
IFR -2°C / -3°C 200º 6kt 4500m Light Showers Snow 3.00mm precipitation Vertical Visibility of 0ft.
Broken Clouds 2600ft
1012 Temporary: Visibility 1500. Showers Snow . Broken Clouds 1600ft. Cumulonimbus . Runway 24: Wet snow, 26-50% contamination with 3mm, friction coefficient 0.40. UUWW 051000Z 20003MPS 4500 -SHSN BKN008 BKN026CB M02/M03 Q1012 R24/550340 TEMPO 1500 SHSN BKN016CB
IFR -2°C / -4°C 190º 8kt 2600m Light Showers Snow 3.00mm precipitation Vertical Visibility of 0ft.
Broken Clouds 2600ft
1012 Temporary: Visibility 1500. Showers Snow . Broken Clouds 1600ft. Cumulonimbus . Runway 19: Wet snow, 26-50% contamination with 3mm, friction coefficient 0.40. UUWW 050930Z 19004MPS 2600 -SHSN BKN007 BKN026CB M02/M04 Q1012 R19/550340 TEMPO 1500 SHSN BKN016CB
IFR -2°C / -4°C 190º 6kt 4200m Light Showers Snow 3.00mm precipitation Vertical Visibility of 0ft.
Broken Clouds 4000ft
1011 Temporary: Visibility 1500. Showers Snow . Broken Clouds 1600ft. Cumulonimbus . Runway 24: Wet snow, 26-50% contamination with 3mm, friction coefficient 0.40. UUWW 050900Z 19003MPS 4200 -SHSN BKN006 BKN040CB M02/M04 Q1011 R24/550340 TEMPO 1500 SHSN BKN016CB
MVFR -3°C / -4°C 170º 6kt 6000m Light Snow 1.00mm precipitation Vertical Visibility of 0ft.
Broken Clouds 3300ft
1011 No Significant change. Runway 24: Wet snow, 26-50% contamination with 3mm, friction coefficient 0.40. UUWW 050830Z 17003MPS 6000 -SN FEW009 BKN033 M03/M04 Q1011 R24/550340 NOSIG
MVFR -3°C / -4°C 190º 8kt 6000m Light Showers Snow 3.00mm precipitation Vertical Visibility of 0ft.
Broken Clouds 3300ft
1011 No Significant change. Runway 19: Wet snow, 26-50% contamination with 3mm, friction coefficient 0.40. UUWW 050800Z 19004MPS 6000 -SHSN FEW010 BKN033CB M03/M04 Q1011 R19/550340 NOSIG
IFR -3°C / -4°C 200º 8kt 5000m Light Snow 1.00mm precipitation Vertical Visibility of 0ft.
Broken Clouds 4000ft
1011 No Significant change. Runway 19: Wet snow, 26-50% contamination with 3mm, friction coefficient 0.40. UUWW 050730Z 20004MPS 5000 -SN BKN007 BKN040 M03/M04 Q1011 R19/550340 NOSIG
IFR -3°C / -4°C 200º 10kt >10km - Broken Clouds 700ft
Broken Clouds 4000ft
1011 No Significant change. Runway 19: Wet snow, 26-50% contamination with 3mm, friction coefficient 0.40. UUWW 050700Z 20005MPS 9999 BKN007 BKN040 M03/M04 Q1011 R19/550340 NOSIG
IFR -3°C / -4°C 200º 6kt 6000m Light Snow 1.00mm precipitation Vertical Visibility of 0ft.
Broken Clouds 4000ft
1011 No Significant change. Runway 24: Wet snow, 26-50% contamination with 3mm, friction coefficient 0.40. UUWW 050630Z 20003MPS 6000 -SN BKN008 BKN040 M03/M04 Q1011 R24/550340 NOSIG
IFR -3°C / -4°C 190º 4kt >10km - Broken Clouds 700ft
Overcast 4600ft
1011 No Significant change. Runway 24: Wet snow, 26-50% contamination with 3mm, friction coefficient 0.40. UUWW 050600Z 19002MPS 9999 BKN007 OVC046 M03/M04 Q1011 R24/550340 NOSIG
IFR -3°C / -4°C 200º variable 150º to 220º 6kt 9000m Light Snow 1.00mm precipitation Vertical Visibility of 0ft.
Overcast 4000ft
1010 No Significant change. Runway 24: Wet snow, 26-50% contamination with 3mm, friction coefficient 0.40. UUWW 050530Z 20003MPS 150V220 9000 -SN BKN006 OVC040 M03/M04 Q1010 R24/550340 NOSIG
IFR -3°C / -4°C 200º 6kt 8000m Light Snow 1.00mm precipitation Vertical Visibility of 0ft.
Broken Clouds 4000ft
1010 No Significant change. Runway 24: Wet snow, 26-50% contamination with 3mm, friction coefficient 0.40. UUWW 050500Z 20003MPS 8000 -SN BKN007 BKN040 M03/M04 Q1010 R24/550340 NOSIG
MVFR -4°C / -5°C 200º 4kt 7000m Light Snow 1.00mm precipitation Vertical Visibility of 0ft.
Broken Clouds 4000ft
1010 No Significant change. Runway 24: Wet snow, 26-50% contamination with 3mm, friction coefficient 0.40. UUWW 050430Z 20002MPS 7000 -SN FEW007 BKN040 M04/M05 Q1010 R24/550340 NOSIG
MVFR -4°C / -5°C 180º 6kt 5000m Light Snow 1.00mm precipitation Vertical Visibility of 0ft. 1010 Temporary: Visibility 1100. Showers Snow . Broken Clouds 1600ft. Cumulonimbus . Runway 24: Wet snow, 26-50% contamination with 3mm, friction coefficient 0.40. UUWW 050400Z 18003MPS 5000 -SN BKN026 M04/M05 Q1010 R24/550340 TEMPO 1100 SHSN BKN016CB
MVFR -4°C / -5°C 170º 4kt 7000m Light Showers Snow 3.00mm precipitation Vertical Visibility of 0ft.
Broken Clouds 3300ft
1010 Temporary: Visibility 1100. Showers Snow . Broken Clouds 1600ft. Cumulonimbus . Runway 24: Wet snow, 26-50% contamination with 3mm, friction coefficient 0.40. UUWW 050330Z 17002MPS 7000 -SHSN FEW008 BKN033CB M04/M05 Q1010 R24/550340 TEMPO 1100 SHSN BKN016CB
IFR -4°C / -5°C 160º 2kt 5000m Light Showers Snow 3.00mm precipitation Vertical Visibility of 0ft.
Broken Clouds 2000ft
1010 Temporary: Visibility 1100. Showers Snow . Broken Clouds 1600ft. Cumulonimbus . Runway 24: Wet snow, 26-50% contamination with 3mm, friction coefficient 0.40. UUWW 050300Z 16001MPS 5000 -SHSN BKN008 BKN020CB M04/M05 Q1010 R24/550340 TEMPO 1100 SHSN BKN016CB
IFR -4°C / -5°C variable 2kt >10km Light Snow 1.00mm precipitation Vertical Visibility of 0ft. 1010 Temporary: Visibility 1100. Showers Snow . Broken Clouds 1600ft. Cumulonimbus . Runway 24: Wet snow, 26-50% contamination with 3mm, friction coefficient 0.40. UUWW 050230Z VRB01MPS 9999 -SN OVC006 M04/M05 Q1010 R24/550340 TEMPO 1100 SHSN BKN016CB
IFR -4°C / -5°C 160º variable 100º to 190º 4kt >10km Light Snow 1.00mm precipitation Vertical Visibility of 0ft. 1010 Temporary: Visibility 1100. Showers Snow . Broken Clouds 1600ft. Cumulonimbus . Runway 24: Wet snow, 26-50% contamination with 3mm, friction coefficient 0.40. UUWW 050200Z 16002MPS 100V190 9999 -SN OVC006 M04/M05 Q1010 R24/550340 TEMPO 1100 SHSN BKN016CB
IFR -5°C / -6°C 120º 2kt >10km Light Snow 1.00mm precipitation Vertical Visibility of 0ft.
Overcast 2000ft
1010 Temporary: Visibility 1100. Showers Snow . Broken Clouds 1600ft. Cumulonimbus . Runway 24: Wet snow, 26-50% contamination with 3mm, friction coefficient 0.40. UUWW 050130Z 12001MPS 9999 -SN BKN006 OVC020 M05/M06 Q1010 R24/550340 TEMPO 1100 SHSN BKN016CB
IFR -5°C / -6°C 130º 4kt 3600m Light Showers Snow 3.00mm precipitation Vertical Visibility of 0ft.
Broken Clouds 2000ft
1010 Temporary: Visibility 1100. Showers Snow . Broken Clouds 1600ft. Cumulonimbus . Runway 24: Wet snow, 26-50% contamination with 3mm, friction coefficient 0.40. UUWW 050100Z 13002MPS 3600 -SHSN BKN007 BKN020CB M05/M06 Q1010 R24/550340 TEMPO 1100 SHSN BKN016CB
IFR -5°C / -6°C 130º 4kt 4900m Light Showers Snow 3.00mm precipitation Vertical Visibility of 0ft.
Broken Clouds 1800ft
1010 No Significant change. Runway 24: Wet snow, 26-50% contamination with 3mm, friction coefficient 0.40. UUWW 050030Z 13002MPS 4900 -SHSN BKN006 BKN018CB M05/M06 Q1010 R24/550340 NOSIG
IFR -5°C / -6°C 110º 4kt >10km Light Snow 1.00mm precipitation Vertical Visibility of 0ft.
Broken Clouds 2000ft
1010 No Significant change. Runway 24: Wet snow, 26-50% contamination with 3mm, friction coefficient 0.40. UUWW 050000Z 11002MPS 9999 -SN BKN008 BKN020 M05/M06 Q1010 R24/550340 NOSIG
IFR -5°C / -6°C 110º 4kt 6000m Light Showers Snow 3.00mm precipitation Vertical Visibility of 0ft.
Broken Clouds 2000ft
1010 No Significant change. Runway 24: Wet snow, 51-100% contamination with 3mm, friction coefficient 0.40. UUWW 042330Z 11002MPS 6000 -SHSN BKN009 BKN020CB M05/M06 Q1010 R24/590340 NOSIG
MVFR -5°C / -7°C 150º 4kt 6000m Light Showers Snow 3.00mm precipitation Vertical Visibility of 0ft. 1010 No Significant change. Runway 24: Wet snow, 11-25% contamination with 2mm, friction coefficient 0.45. UUWW 042300Z 15002MPS 6000 -SHSN BKN012CB M05/M07 Q1010 R24/520245 NOSIG
MVFR -5°C / -7°C 170º 2kt >10km - Broken Clouds 1700ft 1010 No Significant change. Runway 24: Wet snow, 11-25% contamination with 2mm, friction coefficient 0.45. UUWW 042230Z 17001MPS 9999 BKN017 M05/M07 Q1010 R24/520245 NOSIG

IFR

-2°C / -3°C

[أكثر]
رياح 200º 6kt
مجال رؤية 4500m
حالة الطقس Light Showers Snow 3.00mm precipitation
غيوم Vertical Visibility of 0ft.
Broken Clouds 2600ft
الضغط 1012
تغيير Temporary: Visibility 1500. Showers Snow . Broken Clouds 1600ft. Cumulonimbus . Runway 24: Wet snow, 26-50% contamination with 3mm, friction coefficient 0.40.
خام UUWW 051000Z 20003MPS 4500 -SHSN BKN008 BKN026CB M02/M03 Q1012 R24/550340 TEMPO 1500 SHSN BKN016CB

IFR

-2°C / -4°C

[أكثر]
رياح 190º 8kt
مجال رؤية 2600m
حالة الطقس Light Showers Snow 3.00mm precipitation
غيوم Vertical Visibility of 0ft.
Broken Clouds 2600ft
الضغط 1012
تغيير Temporary: Visibility 1500. Showers Snow . Broken Clouds 1600ft. Cumulonimbus . Runway 19: Wet snow, 26-50% contamination with 3mm, friction coefficient 0.40.
خام UUWW 050930Z 19004MPS 2600 -SHSN BKN007 BKN026CB M02/M04 Q1012 R19/550340 TEMPO 1500 SHSN BKN016CB

IFR

-2°C / -4°C

[أكثر]
رياح 190º 6kt
مجال رؤية 4200m
حالة الطقس Light Showers Snow 3.00mm precipitation
غيوم Vertical Visibility of 0ft.
Broken Clouds 4000ft
الضغط 1011
تغيير Temporary: Visibility 1500. Showers Snow . Broken Clouds 1600ft. Cumulonimbus . Runway 24: Wet snow, 26-50% contamination with 3mm, friction coefficient 0.40.
خام UUWW 050900Z 19003MPS 4200 -SHSN BKN006 BKN040CB M02/M04 Q1011 R24/550340 TEMPO 1500 SHSN BKN016CB

MVFR

-3°C / -4°C

[أكثر]
رياح 170º 6kt
مجال رؤية 6000m
حالة الطقس Light Snow 1.00mm precipitation
غيوم Vertical Visibility of 0ft.
Broken Clouds 3300ft
الضغط 1011
تغيير No Significant change. Runway 24: Wet snow, 26-50% contamination with 3mm, friction coefficient 0.40.
خام UUWW 050830Z 17003MPS 6000 -SN FEW009 BKN033 M03/M04 Q1011 R24/550340 NOSIG

MVFR

-3°C / -4°C

[أكثر]
رياح 190º 8kt
مجال رؤية 6000m
حالة الطقس Light Showers Snow 3.00mm precipitation
غيوم Vertical Visibility of 0ft.
Broken Clouds 3300ft
الضغط 1011
تغيير No Significant change. Runway 19: Wet snow, 26-50% contamination with 3mm, friction coefficient 0.40.
خام UUWW 050800Z 19004MPS 6000 -SHSN FEW010 BKN033CB M03/M04 Q1011 R19/550340 NOSIG

IFR

-3°C / -4°C

[أكثر]
رياح 200º 8kt
مجال رؤية 5000m
حالة الطقس Light Snow 1.00mm precipitation
غيوم Vertical Visibility of 0ft.
Broken Clouds 4000ft
الضغط 1011
تغيير No Significant change. Runway 19: Wet snow, 26-50% contamination with 3mm, friction coefficient 0.40.
خام UUWW 050730Z 20004MPS 5000 -SN BKN007 BKN040 M03/M04 Q1011 R19/550340 NOSIG

IFR

-3°C / -4°C

[أكثر]
رياح 200º 10kt
مجال رؤية >10km
حالة الطقس -
غيوم Broken Clouds 700ft
Broken Clouds 4000ft
الضغط 1011
تغيير No Significant change. Runway 19: Wet snow, 26-50% contamination with 3mm, friction coefficient 0.40.
خام UUWW 050700Z 20005MPS 9999 BKN007 BKN040 M03/M04 Q1011 R19/550340 NOSIG

IFR

-3°C / -4°C

[أكثر]
رياح 200º 6kt
مجال رؤية 6000m
حالة الطقس Light Snow 1.00mm precipitation
غيوم Vertical Visibility of 0ft.
Broken Clouds 4000ft
الضغط 1011
تغيير No Significant change. Runway 24: Wet snow, 26-50% contamination with 3mm, friction coefficient 0.40.
خام UUWW 050630Z 20003MPS 6000 -SN BKN008 BKN040 M03/M04 Q1011 R24/550340 NOSIG

IFR

-3°C / -4°C

[أكثر]
رياح 190º 4kt
مجال رؤية >10km
حالة الطقس -
غيوم Broken Clouds 700ft
Overcast 4600ft
الضغط 1011
تغيير No Significant change. Runway 24: Wet snow, 26-50% contamination with 3mm, friction coefficient 0.40.
خام UUWW 050600Z 19002MPS 9999 BKN007 OVC046 M03/M04 Q1011 R24/550340 NOSIG

IFR

-3°C / -4°C

[أكثر]
رياح 200º variable 150º to 220º 6kt
مجال رؤية 9000m
حالة الطقس Light Snow 1.00mm precipitation
غيوم Vertical Visibility of 0ft.
Overcast 4000ft
الضغط 1010
تغيير No Significant change. Runway 24: Wet snow, 26-50% contamination with 3mm, friction coefficient 0.40.
خام UUWW 050530Z 20003MPS 150V220 9000 -SN BKN006 OVC040 M03/M04 Q1010 R24/550340 NOSIG

IFR

-3°C / -4°C

[أكثر]
رياح 200º 6kt
مجال رؤية 8000m
حالة الطقس Light Snow 1.00mm precipitation
غيوم Vertical Visibility of 0ft.
Broken Clouds 4000ft
الضغط 1010
تغيير No Significant change. Runway 24: Wet snow, 26-50% contamination with 3mm, friction coefficient 0.40.
خام UUWW 050500Z 20003MPS 8000 -SN BKN007 BKN040 M03/M04 Q1010 R24/550340 NOSIG

MVFR

-4°C / -5°C

[أكثر]
رياح 200º 4kt
مجال رؤية 7000m
حالة الطقس Light Snow 1.00mm precipitation
غيوم Vertical Visibility of 0ft.
Broken Clouds 4000ft
الضغط 1010
تغيير No Significant change. Runway 24: Wet snow, 26-50% contamination with 3mm, friction coefficient 0.40.
خام UUWW 050430Z 20002MPS 7000 -SN FEW007 BKN040 M04/M05 Q1010 R24/550340 NOSIG

MVFR

-4°C / -5°C

[أكثر]
رياح 180º 6kt
مجال رؤية 5000m
حالة الطقس Light Snow 1.00mm precipitation
غيوم Vertical Visibility of 0ft.
الضغط 1010
تغيير Temporary: Visibility 1100. Showers Snow . Broken Clouds 1600ft. Cumulonimbus . Runway 24: Wet snow, 26-50% contamination with 3mm, friction coefficient 0.40.
خام UUWW 050400Z 18003MPS 5000 -SN BKN026 M04/M05 Q1010 R24/550340 TEMPO 1100 SHSN BKN016CB

MVFR

-4°C / -5°C

[أكثر]
رياح 170º 4kt
مجال رؤية 7000m
حالة الطقس Light Showers Snow 3.00mm precipitation
غيوم Vertical Visibility of 0ft.
Broken Clouds 3300ft
الضغط 1010
تغيير Temporary: Visibility 1100. Showers Snow . Broken Clouds 1600ft. Cumulonimbus . Runway 24: Wet snow, 26-50% contamination with 3mm, friction coefficient 0.40.
خام UUWW 050330Z 17002MPS 7000 -SHSN FEW008 BKN033CB M04/M05 Q1010 R24/550340 TEMPO 1100 SHSN BKN016CB

IFR

-4°C / -5°C

[أكثر]
رياح 160º 2kt
مجال رؤية 5000m
حالة الطقس Light Showers Snow 3.00mm precipitation
غيوم Vertical Visibility of 0ft.
Broken Clouds 2000ft
الضغط 1010
تغيير Temporary: Visibility 1100. Showers Snow . Broken Clouds 1600ft. Cumulonimbus . Runway 24: Wet snow, 26-50% contamination with 3mm, friction coefficient 0.40.
خام UUWW 050300Z 16001MPS 5000 -SHSN BKN008 BKN020CB M04/M05 Q1010 R24/550340 TEMPO 1100 SHSN BKN016CB

IFR

-4°C / -5°C

[أكثر]
رياح variable 2kt
مجال رؤية >10km
حالة الطقس Light Snow 1.00mm precipitation
غيوم Vertical Visibility of 0ft.
الضغط 1010
تغيير Temporary: Visibility 1100. Showers Snow . Broken Clouds 1600ft. Cumulonimbus . Runway 24: Wet snow, 26-50% contamination with 3mm, friction coefficient 0.40.
خام UUWW 050230Z VRB01MPS 9999 -SN OVC006 M04/M05 Q1010 R24/550340 TEMPO 1100 SHSN BKN016CB

IFR

-4°C / -5°C

[أكثر]
رياح 160º variable 100º to 190º 4kt
مجال رؤية >10km
حالة الطقس Light Snow 1.00mm precipitation
غيوم Vertical Visibility of 0ft.
الضغط 1010
تغيير Temporary: Visibility 1100. Showers Snow . Broken Clouds 1600ft. Cumulonimbus . Runway 24: Wet snow, 26-50% contamination with 3mm, friction coefficient 0.40.
خام UUWW 050200Z 16002MPS 100V190 9999 -SN OVC006 M04/M05 Q1010 R24/550340 TEMPO 1100 SHSN BKN016CB

IFR

-5°C / -6°C

[أكثر]
رياح 120º 2kt
مجال رؤية >10km
حالة الطقس Light Snow 1.00mm precipitation
غيوم Vertical Visibility of 0ft.
Overcast 2000ft
الضغط 1010
تغيير Temporary: Visibility 1100. Showers Snow . Broken Clouds 1600ft. Cumulonimbus . Runway 24: Wet snow, 26-50% contamination with 3mm, friction coefficient 0.40.
خام UUWW 050130Z 12001MPS 9999 -SN BKN006 OVC020 M05/M06 Q1010 R24/550340 TEMPO 1100 SHSN BKN016CB

IFR

-5°C / -6°C

[أكثر]
رياح 130º 4kt
مجال رؤية 3600m
حالة الطقس Light Showers Snow 3.00mm precipitation
غيوم Vertical Visibility of 0ft.
Broken Clouds 2000ft
الضغط 1010
تغيير Temporary: Visibility 1100. Showers Snow . Broken Clouds 1600ft. Cumulonimbus . Runway 24: Wet snow, 26-50% contamination with 3mm, friction coefficient 0.40.
خام UUWW 050100Z 13002MPS 3600 -SHSN BKN007 BKN020CB M05/M06 Q1010 R24/550340 TEMPO 1100 SHSN BKN016CB

IFR

-5°C / -6°C

[أكثر]
رياح 130º 4kt
مجال رؤية 4900m
حالة الطقس Light Showers Snow 3.00mm precipitation
غيوم Vertical Visibility of 0ft.
Broken Clouds 1800ft
الضغط 1010
تغيير No Significant change. Runway 24: Wet snow, 26-50% contamination with 3mm, friction coefficient 0.40.
خام UUWW 050030Z 13002MPS 4900 -SHSN BKN006 BKN018CB M05/M06 Q1010 R24/550340 NOSIG

IFR

-5°C / -6°C

[أكثر]
رياح 110º 4kt
مجال رؤية >10km
حالة الطقس Light Snow 1.00mm precipitation
غيوم Vertical Visibility of 0ft.
Broken Clouds 2000ft
الضغط 1010
تغيير No Significant change. Runway 24: Wet snow, 26-50% contamination with 3mm, friction coefficient 0.40.
خام UUWW 050000Z 11002MPS 9999 -SN BKN008 BKN020 M05/M06 Q1010 R24/550340 NOSIG

IFR

-5°C / -6°C

[أكثر]
رياح 110º 4kt
مجال رؤية 6000m
حالة الطقس Light Showers Snow 3.00mm precipitation
غيوم Vertical Visibility of 0ft.
Broken Clouds 2000ft
الضغط 1010
تغيير No Significant change. Runway 24: Wet snow, 51-100% contamination with 3mm, friction coefficient 0.40.
خام UUWW 042330Z 11002MPS 6000 -SHSN BKN009 BKN020CB M05/M06 Q1010 R24/590340 NOSIG

MVFR

-5°C / -7°C

[أكثر]
رياح 150º 4kt
مجال رؤية 6000m
حالة الطقس Light Showers Snow 3.00mm precipitation
غيوم Vertical Visibility of 0ft.
الضغط 1010
تغيير No Significant change. Runway 24: Wet snow, 11-25% contamination with 2mm, friction coefficient 0.45.
خام UUWW 042300Z 15002MPS 6000 -SHSN BKN012CB M05/M07 Q1010 R24/520245 NOSIG

MVFR

-5°C / -7°C

[أكثر]
رياح 170º 2kt
مجال رؤية >10km
حالة الطقس -
غيوم Broken Clouds 1700ft
الضغط 1010
تغيير No Significant change. Runway 24: Wet snow, 11-25% contamination with 2mm, friction coefficient 0.45.
خام UUWW 042230Z 17001MPS 9999 BKN017 M05/M07 Q1010 R24/520245 NOSIG

انقر ل55.6°شمال 37.27°شرق (UUWW)

From till


Maximum Temperature -2ºC on . Minimum Temperature -5ºC on .
From till Wind 190º 6kt. Gust 16kt. Visibility 6000m. Light Snow . Overcast 700ft.
Temporarly from till Visibility 1500m. Showers Snow . Broken Clouds 400ft. Broken Clouds 1600ft.

خام: TAF UUWW 050759Z 0509/0609 19003G08MPS 6000 -SN OVC007 TXM02/0512Z TNM05/0521Z TEMPO 0509/0609 1500 SHSN BKN004 BKN016CB

رادار وهطول الأمطار التنبؤ الآني ل55.6°شمال 37.27°شرق

رذاذ
ضوء
معتدل
ثقيل
ثقيل جدا
وابل

مؤشر المكان يشير الى 55.6°شمال 37.27°شرق. تظهر في هذه الرسوم المتحركة هطول الامطار بالرادار للساعة الماضية, و توقعات 1h. رذاذ أو تساقط ثلوج خفيف قد يكون غير مرئي للرادار. كثافة هطول الأمطار مرمزة بالألوان وتتراوح من الأزرق الفاتح إلى البرتقالي.

صور الأقمار الصناعية الملتقطة و الأمطار حالياً ل55.6°شمال 37.27°شرق

المؤشر يدل على موقع 55.6°شمال 37.27°شرق. [أكثر]

تجمع صورة الأقمار الصناعية في الوقت الفعلي بين الضوء المرئي أثناء النهار والأشعة تحت الحمراء أثناء الليل. لا تبدو الصورة مظلمة ليلاً، لأن الأشعة تحت الحمراء يمكنها الكشف عن الاختلافات في درجة الحرارة. لسوء الحظ ، يصعب التمييز بين السحب المنخفضة والضباب ودرجات حرارة الأرض ، وبالتالي يمكن أن تكون الصور غير مرئية تقريبًا أثناء الليل. يتم تحديث صور الأقمار الصناعية Meteosat الخاصة بأوروبا في الوقت الفعلي كل 5 دقائق، بينما يتم تحديث صور GOES-16 / GOES-17 (أمريكا الشمالية والجنوبية) و Himawari (آسيا) كل 10 دقائق.

حقوق النسخ 2021 EUMETSAT / meteoblue. / حقوق النسخ 2021 meteoblue